Time;durP1;ratioP1;P1;durP2;ratioP2;P2;SDS_P1;SDS_P2;PMS_P1;PMS_P2;Temp;Humidity;BMP_temperature;BMP_pressure;BME280_temperature;BME280_humidity;BME280_pressure;Samples;Min_cycle;Max_cycle;Signal;HPM_P1;HPM_P2
2023/05/05 00:02:20;;;;;;;11.30;7.68;;;;;;;15.97;90.83;101278.63;5085132;28;20403;-74
2023/05/05 00:04:48;;;;;;;13.77;8.27;;;;;;;15.87;90.60;101262.22;5081332;28;20032;-74
2023/05/05 00:07:16;;;;;;;13.90;8.75;;;;;;;15.87;90.86;101262.22;5085801;28;20055;-74
2023/05/05 00:09:44;;;;;;;10.90;7.40;;;;;;;15.88;90.47;101259.13;5088092;28;20044;-74
2023/05/05 00:12:12;;;;;;;12.02;8.07;;;;;;;15.84;90.82;101272.72;5091068;28;20055;-74
2023/05/05 00:14:40;;;;;;;11.77;8.43;;;;;;;15.85;90.84;101259.75;5091616;28;20063;-74
2023/05/05 00:17:08;;;;;;;14.80;8.68;;;;;;;15.77;90.75;101261.25;5091625;28;20387;-74
2023/05/05 00:19:36;;;;;;;13.77;9.10;;;;;;;15.76;91.35;101254.09;5091841;28;20052;-74
2023/05/05 00:22:04;;;;;;;12.98;8.65;;;;;;;15.73;92.29;101257.44;5090990;28;20051;-74
2023/05/05 00:24:32;;;;;;;12.95;8.82;;;;;;;15.63;92.28;101247.38;5091742;28;20483;-74
2023/05/05 00:27:01;;;;;;;11.85;8.90;;;;;;;15.64;93.35;101260.03;5091509;28;20055;-74
2023/05/05 00:29:29;;;;;;;12.90;8.73;;;;;;;15.61;92.48;101259.81;5091675;28;20051;-74
2023/05/05 00:31:57;;;;;;;11.68;8.68;;;;;;;15.47;93.29;101249.53;5091224;28;20048;-74
2023/05/05 00:34:25;;;;;;;13.68;9.45;;;;;;;15.49;93.73;101257.50;5071781;28;20044;-74
2023/05/05 00:36:53;;;;;;;13.20;8.32;;;;;;;15.53;93.21;101253.84;5093258;28;20048;-74
2023/05/05 00:39:22;;;;;;;13.43;8.85;;;;;;;15.51;93.96;101247.00;5095997;28;20052;-74
2023/05/05 00:41:50;;;;;;;11.57;8.45;;;;;;;15.44;93.55;101250.09;5095815;28;20394;-74
2023/05/05 00:44:35;;;;;;;12.15;8.75;;;;;;;15.39;93.48;101248.25;5094858;28;20048;-74
2023/05/05 00:47:04;;;;;;;13.38;9.45;;;;;;;15.35;94.02;101238.13;5095976;28;20055;-74
2023/05/05 00:49:33;;;;;;;12.82;9.07;;;;;;;15.42;94.43;101255.13;5094353;28;20491;-74
2023/05/05 00:52:03;;;;;;;15.98;9.68;;;;;;;15.42;94.50;101241.31;5095665;28;20063;-74
2023/05/05 00:54:35;;;;;;;15.52;9.77;;;;;;;15.45;94.14;101246.25;5095760;28;20055;-74
2023/05/05 00:57:04;;;;;;;14.63;9.63;;;;;;;15.43;94.22;101240.19;5080704;28;20055;-74
2023/05/05 00:59:32;;;;;;;12.02;9.18;;;;;;;15.40;94.22;101246.31;5092302;28;20044;-74
2023/05/05 01:02:01;;;;;;;13.20;9.45;;;;;;;15.34;94.52;101237.28;5090088;28;20055;-74
2023/05/05 01:04:29;;;;;;;14.23;9.20;;;;;;;15.35;94.36;101235.34;5094315;28;20517;-74
2023/05/05 01:07:13;;;;;;;11.48;8.63;;;;;;;15.49;94.00;101238.22;5084418;28;20055;-74
2023/05/05 01:10:13;;;;;;;14.15;8.90;;;;;;;15.45;94.15;101230.50;5087688;28;20044;-74
2023/05/05 01:13:00;;;;;;;13.48;9.15;;;;;;;15.40;95.11;101235.28;5093518;28;20505;-74
2023/05/05 01:15:31;;;;;;;11.90;8.70;;;;;;;15.29;94.55;101229.06;5094883;28;20052;-74
2023/05/05 01:18:18;;;;;;;14.13;9.85;;;;;;;15.29;94.56;101218.88;5093552;28;20055;-74
2023/05/05 01:20:56;;;;;;;14.88;9.93;;;;;;;15.22;95.48;101226.69;5094762;28;20048;-74
2023/05/05 01:23:59;;;;;;;15.18;9.48;;;;;;;15.16;94.99;101219.63;5095032;28;20067;-74
2023/05/05 01:26:54;;;;;;;16.33;9.60;;;;;;;15.18;96.00;101222.88;5094680;28;20044;-74
2023/05/05 01:29:40;;;;;;;15.38;9.40;;;;;;;15.15;96.84;101220.72;5093263;28;20055;-74
2023/05/05 01:32:21;;;;;;;16.83;9.85;;;;;;;15.00;96.88;101203.25;5094327;28;20047;-74
2023/05/05 01:34:57;;;;;;;15.15;10.00;;;;;;;15.10;95.90;101212.53;5093464;28;20044;-74
2023/05/05 01:37:35;;;;;;;13.02;8.77;;;;;;;15.15;95.13;101215.22;5094884;28;20040;-74
2023/05/05 01:40:06;;;;;;;12.65;9.13;;;;;;;15.15;96.62;101231.75;5094854;28;20051;-74
2023/05/05 01:42:37;;;;;;;12.75;9.57;;;;;;;15.05;97.13;101221.66;5093536;28;20040;-74
2023/05/05 01:45:07;;;;;;;14.52;9.38;;;;;;;15.07;97.42;101218.63;5094324;28;20052;-74
2023/05/05 01:47:37;;;;;;;13.85;10.05;;;;;;;15.09;97.91;101227.41;5094623;28;20048;-74
2023/05/05 01:50:07;;;;;;;12.52;8.82;;;;;;;15.02;97.70;101217.56;5094304;28;20048;-74
2023/05/05 01:52:39;;;;;;;15.38;9.90;;;;;;;15.05;97.22;101208.72;5093350;28;20063;-74
2023/05/05 01:55:09;;;;;;;14.60;9.20;;;;;;;15.00;96.93;101207.97;5094713;28;20048;-74
2023/05/05 01:57:40;;;;;;;12.88;8.40;;;;;;;15.02;96.63;101198.25;5076234;28;20048;-74
2023/05/05 02:00:10;;;;;;;14.48;9.05;;;;;;;14.94;97.12;101214.63;5092786;28;20051;-74
2023/05/05 02:02:45;;;;;;;12.93;8.30;;;;;;;14.96;96.88;101212.41;5093243;28;20051;-74
2023/05/05 02:05:15;;;;;;;13.73;9.48;;;;;;;14.93;97.75;101213.00;5094479;28;20057;-74
2023/05/05 02:07:45;;;;;;;13.82;9.63;;;;;;;14.89;98.03;101207.25;5092799;28;20048;-74
2023/05/05 02:10:14;;;;;;;12.10;8.15;;;;;;;14.81;98.41;101213.41;5093841;28;20048;-74
2023/05/05 02:12:45;;;;;;;12.00;8.85;;;;;;;14.75;99.46;101223.66;5093835;28;20473;-74
2023/05/05 02:15:15;;;;;;;15.65;9.82;;;;;;;14.69;99.92;101219.28;5092359;28;20055;-74
2023/05/05 02:17:45;;;;;;;14.90;9.73;;;;;;;14.63;99.10;101213.84;5093600;28;20692;-74
2023/05/05 02:20:15;;;;;;;13.35;9.60;;;;;;;14.61;100.00;101215.25;5092733;28;20048;-74
2023/05/05 02:22:42;;;;;;;14.98;9.82;;;;;;;14.53;100.00;101205.69;5093900;28;20048;-75
2023/05/05 02:25:11;;;;;;;12.52;8.77;;;;;;;14.59;100.00;101203.69;5093798;28;20071;-74
2023/05/05 02:27:42;;;;;;;14.75;9.32;;;;;;;14.55;100.00;101210.91;5093587;28;20044;-74
2023/05/05 02:30:14;;;;;;;13.70;9.07;;;;;;;14.57;100.00;101205.94;5092025;28;20125;-74
2023/05/05 02:32:52;;;;;;;15.07;9.30;;;;;;;14.47;100.00;101204.13;5092323;28;20059;-74
2023/05/05 02:35:34;;;;;;;13.18;8.68;;;;;;;14.54;100.00;101201.84;5092209;28;20047;-74
2023/05/05 02:38:05;;;;;;;12.65;9.15;;;;;;;14.48;100.00;101194.75;5093321;28;20498;-74
2023/05/05 02:40:41;;;;;;;15.60;9.23;;;;;;;14.42;100.00;101204.97;5093334;28;20052;-74
2023/05/05 02:43:15;;;;;;;14.57;9.60;;;;;;;14.27;100.00;101205.13;5074853;28;20040;-73
2023/05/05 02:45:43;;;;;;;12.05;8.70;;;;;;;14.33;100.00;101192.97;5092426;28;20286;-74
2023/05/05 02:48:13;;;;;;;12.63;8.93;;;;;;;14.29;100.00;101200.16;5091825;28;20052;-74
2023/05/05 02:50:40;;;;;;;15.30;10.20;;;;;;;14.28;100.00;101204.00;5092572;28;20052;-74
2023/05/05 02:53:26;;;;;;;15.68;9.70;;;;;;;14.32;100.00;101200.38;5092028;28;20052;-74
2023/05/05 02:56:27;;;;;;;14.82;9.68;;;;;;;14.26;100.00;101195.25;5093212;28;20048;-74
2023/05/05 02:59:18;;;;;;;12.85;8.52;;;;;;;14.27;100.00;101196.88;5086572;28;20056;-74
2023/05/05 03:01:58;;;;;;;13.27;9.32;;;;;;;14.22;100.00;101197.72;5088005;28;20111;-74
2023/05/05 03:04:34;;;;;;;13.60;9.23;;;;;;;14.29;100.00;101200.16;5091719;28;20505;-73
2023/05/05 03:07:10;;;;;;;15.25;9.65;;;;;;;14.35;100.00;101193.47;5091493;28;20051;-74
2023/05/05 03:09:44;;;;;;;15.38;10.20;;;;;;;14.34;100.00;101198.19;5091495;28;20044;-74
2023/05/05 03:12:20;;;;;;;17.30;10.48;;;;;;;14.34;100.00;101186.34;5091930;28;20047;-74
2023/05/05 03:15:09;;;;;;;14.90;10.18;;;;;;;14.30;100.00;101193.53;5093043;28;20047;-74
2023/05/05 03:17:40;;;;;;;14.98;10.63;;;;;;;14.35;100.00;101194.31;5091353;28;20506;-74
2023/05/05 03:20:10;;;;;;;15.55;10.38;;;;;;;14.26;100.00;101189.72;5092606;28;20039;-74
2023/05/05 03:22:40;;;;;;;14.70;9.88;;;;;;;14.26;100.00;101184.22;5091729;28;20047;-74
2023/05/05 03:25:12;;;;;;;16.58;10.23;;;;;;;14.26;100.00;101186.97;5091557;28;20051;-74
2023/05/05 03:27:40;;;;;;;14.05;10.05;;;;;;;14.16;100.00;101194.22;5091473;28;20040;-74
2023/05/05 03:30:11;;;;;;;16.73;10.90;;;;;;;14.21;100.00;101196.91;5074626;28;20141;-74
2023/05/05 03:32:47;;;;;;;17.15;10.05;;;;;;;14.17;100.00;101193.09;5091330;28;20058;-74
2023/05/05 03:35:15;;;;;;;15.20;10.50;;;;;;;14.17;100.00;101187.59;5074878;28;20410;-74
2023/05/05 03:37:43;;;;;;;14.10;10.68;;;;;;;14.11;100.00;101183.25;5091073;28;20048;-74
2023/05/05 03:40:14;;;;;;;15.68;9.35;;;;;;;14.16;100.00;101180.44;5089967;28;20044;-74
2023/05/05 03:42:41;;;;;;;14.30;9.80;;;;;;;14.20;100.00;101180.69;5092575;28;20044;-74
2023/05/05 03:45:09;;;;;;;17.48;11.85;;;;;;;14.25;100.00;101191.66;5092483;28;20048;-74
2023/05/05 03:47:39;;;;;;;15.60;9.82;;;;;;;14.17;100.00;101182.09;5091059;28;20044;-74
2023/05/05 03:50:08;;;;;;;15.95;10.60;;;;;;;14.21;100.00;101185.06;5090455;28;20036;-74
2023/05/05 03:52:36;;;;;;;17.70;11.48;;;;;;;14.17;100.00;101186.78;5090925;28;20055;-74
2023/05/05 03:55:05;;;;;;;14.30;9.90;;;;;;;14.13;100.00;101178.25;5091149;28;20040;-74
2023/05/05 03:57:33;;;;;;;15.93;10.32;;;;;;;14.19;100.00;101179.88;5092154;28;20375;-74
2023/05/05 04:00:01;;;;;;;15.10;10.48;;;;;;;14.29;100.00;101191.88;5092217;28;20048;-74
2023/05/05 04:02:40;;;;;;;14.73;10.05;;;;;;;14.22;100.00;101182.03;5092274;28;20331;-74
2023/05/05 04:05:11;;;;;;;16.08;10.88;;;;;;;14.12;100.00;101184.88;5090673;28;20051;-74
2023/05/05 04:07:39;;;;;;;16.67;10.65;;;;;;;14.15;100.00;101176.06;5086662;28;20059;-74
2023/05/05 04:10:07;;;;;;;15.48;10.40;;;;;;;14.19;100.00;101181.81;5091256;28;20043;-74
2023/05/05 04:12:36;;;;;;;15.52;10.32;;;;;;;14.23;100.00;101178.16;5091363;28;20500;-74
2023/05/05 04:15:05;;;;;;;16.45;11.18;;;;;;;14.32;100.00;101188.56;5090012;28;20043;-74
2023/05/05 04:17:34;;;;;;;16.83;11.35;;;;;;;14.34;100.00;101176.16;5090573;28;20040;-74
2023/05/05 04:20:03;;;;;;;17.35;11.75;;;;;;;14.40;100.00;101179.66;5090885;28;20079;-74
2023/05/05 04:22:32;;;;;;;16.42;10.75;;;;;;;14.44;99.47;101183.47;5090089;28;20213;-74
2023/05/05 04:25:01;;;;;;;16.48;11.27;;;;;;;14.47;99.77;101179.34;5073773;28;20040;-73
2023/05/05 04:27:29;;;;;;;15.23;10.95;;;;;;;14.47;99.60;101179.34;5070710;28;20049;-73
2023/05/05 04:29:59;;;;;;;18.33;10.90;;;;;;;14.48;98.90;101173.50;5085857;28;20048;-73
2023/05/05 04:32:27;;;;;;;17.33;11.27;;;;;;;14.48;99.10;101181.78;5091723;28;20047;-73
2023/05/05 04:34:55;;;;;;;19.80;11.48;;;;;;;14.52;99.42;101193.06;5090136;28;20063;-85
2023/05/05 04:37:24;;;;;;;17.08;9.93;;;;;;;14.75;98.14;101185.91;5091799;28;20063;-93
2023/05/05 04:39:52;;;;;;;15.10;10.20;;;;;;;15.24;95.72;101187.81;5077543;28;20059;-93
2023/05/05 04:42:21;;;;;;;15.88;10.00;;;;;;;15.44;93.02;101195.78;5060820;28;20044;-94
2023/05/05 04:44:49;;;;;;;15.25;9.95;;;;;;;15.46;92.99;101189.97;5077187;28;20045;-93
2023/05/05 04:47:17;;;;;;;14.70;9.50;;;;;;;15.68;91.64;101186.59;5093233;28;20044;-93
2023/05/05 04:49:45;;;;;;;15.65;10.02;;;;;;;15.70;91.99;101184.34;5059678;28;20056;-95
2023/05/05 04:52:13;;;;;;;14.98;10.00;;;;;;;15.69;91.38;101191.00;5076080;28;20532;-94
2023/05/05 04:54:41;;;;;;;16.35;10.13;;;;;;;15.62;91.35;101178.69;5075776;28;20502;-93
2023/05/05 04:57:09;;;;;;;15.35;9.85;;;;;;;15.76;90.92;101178.75;5091776;28;20044;-89
2023/05/05 04:59:37;;;;;;;14.20;9.15;;;;;;;15.89;89.92;101193.75;5070073;28;20044;-90
2023/05/05 05:02:05;;;;;;;13.65;9.27;;;;;;;15.92;89.74;101191.22;5084061;28;20446;-88
2023/05/05 05:04:33;;;;;;;12.30;9.50;;;;;;;16.05;89.19;101191.56;5074059;28;20048;-89
2023/05/05 05:07:01;;;;;;;13.05;9.50;;;;;;;16.29;87.73;101187.84;5090959;28;20058;-88
2023/05/05 05:09:29;;;;;;;13.98;9.82;;;;;;;16.49;86.82;101194.94;5073200;28;20573;-87
2023/05/05 05:12:01;;;;;;;12.38;8.38;;;;;;;16.52;86.92;101199.81;5090005;28;20047;-89
2023/05/05 05:14:35;;;;;;;13.15;9.07;;;;;;;16.52;86.49;101202.59;5091943;28;20036;-87
2023/05/05 05:17:04;;;;;;;12.90;8.88;;;;;;;16.64;85.68;101202.94;5073858;28;20403;-89
2023/05/05 05:19:33;;;;;;;14.02;8.90;;;;;;;16.63;85.90;101206.78;5090367;28;20051;-87
2023/05/05 05:22:02;;;;;;;16.60;9.20;;;;;;;16.51;87.24;101198.19;5093377;28;20048;-87
2023/05/05 05:24:33;;;;;;;14.20;9.35;;;;;;;16.66;86.63;101197.91;5077727;28;20043;-87
2023/05/05 05:27:02;;;;;;;15.25;9.50;;;;;;;16.70;86.71;101200.88;5094228;28;20060;-87
2023/05/05 05:29:30;;;;;;;15.65;10.02;;;;;;;16.61;87.64;101202.69;5093747;28;20047;-86
2023/05/05 05:31:59;;;;;;;16.50;10.18;;;;;;;16.72;86.85;101208.88;5094124;28;20067;-87
2023/05/05 05:34:28;;;;;;;11.82;8.98;;;;;;;16.81;86.48;101200.69;5076803;28;20052;-87
2023/05/05 05:36:56;;;;;;;14.18;9.38;;;;;;;16.87;85.93;101205.78;5093776;28;20494;-88
2023/05/05 05:39:24;;;;;;;14.90;8.88;;;;;;;17.14;84.62;101209.69;5095142;28;20055;-88
2023/05/05 05:41:52;;;;;;;17.23;8.90;;;;;;;17.15;84.84;101203.03;5094781;28;20059;-86
2023/05/05 05:44:20;;;;;;;12.40;8.20;;;;;;;17.35;83.75;101206.47;5093605;28;20032;-87
2023/05/05 05:46:48;;;;;;;13.85;9.05;;;;;;;17.49;83.21;101208.41;5095023;28;20044;-88
2023/05/05 05:49:17;;;;;;;12.77;8.43;;;;;;;17.60;82.64;101210.59;5093845;28;20041;-88
2023/05/05 05:51:45;;;;;;;14.13;9.45;;;;;;;17.48;83.55;101217.81;5077410;28;20047;-88
2023/05/05 05:54:13;;;;;;;12.75;8.65;;;;;;;17.58;83.13;101212.03;5093632;28;20048;-87
2023/05/05 05:56:42;;;;;;;12.23;8.40;;;;;;;17.70;82.87;101219.81;5093834;28;20051;-88
2023/05/05 05:59:11;;;;;;;15.98;9.27;;;;;;;17.81;83.78;101217.59;5060206;28;20048;-88
2023/05/05 06:01:40;;;;;;;14.60;8.48;;;;;;;17.86;82.31;101209.97;5076762;28;20040;-87
2023/05/05 06:04:08;;;;;;;11.35;8.50;;;;;;;17.88;82.24;101212.44;5093715;28;20039;-88
2023/05/05 06:06:38;;;;;;;13.40;8.77;;;;;;;18.06;81.16;101220.91;5093459;28;20051;-89
2023/05/05 06:09:05;;;;;;;11.32;8.50;;;;;;;18.22;80.46;101218.56;5094491;28;20051;-89
2023/05/05 06:11:35;;;;;;;13.43;8.55;;;;;;;18.22;81.08;101216.63;5093796;28;20391;-89
2023/05/05 06:14:03;;;;;;;13.98;9.00;;;;;;;18.24;81.39;101217.09;5076801;28;20055;-89
2023/05/05 06:16:31;;;;;;;13.32;9.38;;;;;;;18.37;80.30;101220.94;5094322;28;20062;-89
2023/05/05 06:19:08;;;;;;;13.50;8.57;;;;;;;18.49;79.71;101225.91;5093369;28;20055;-88
2023/05/05 06:21:37;;;;;;;12.75;8.70;;;;;;;18.61;79.23;101225.28;5060401;28;20048;-88
2023/05/05 06:24:05;;;;;;;13.32;8.85;;;;;;;18.66;78.81;101227.09;5085636;28;20041;-89
2023/05/05 06:26:34;;;;;;;11.65;8.32;;;;;;;18.78;76.99;101235.63;5082863;28;20383;-89
2023/05/05 06:29:02;;;;;;;11.88;8.02;;;;;;;18.79;76.65;101226.19;5071973;28;20442;-89
2023/05/05 06:31:30;;;;;;;10.80;8.18;;;;;;;18.89;75.88;101230.63;5072331;28;20044;-90
2023/05/05 06:33:58;;;;;;;12.82;8.48;;;;;;;18.86;77.67;101230.47;5072268;28;20048;-89
2023/05/05 06:36:26;;;;;;;12.55;8.27;;;;;;;19.01;77.54;101226.44;5072283;28;20063;-89
2023/05/05 06:38:55;;;;;;;12.50;8.50;;;;;;;19.02;79.19;101214.19;5072561;28;20111;-88
2023/05/05 06:41:23;;;;;;;14.23;9.13;;;;;;;19.16;77.14;101230.75;5071545;28;20044;-90
2023/05/05 06:43:51;;;;;;;10.15;7.35;;;;;;;19.15;72.80;101229.06;5055698;28;20514;-89
2023/05/05 06:46:18;;;;;;;9.30;7.05;;;;;;;19.23;73.27;101233.84;5055841;28;20574;-90
2023/05/05 06:48:46;;;;;;;13.73;8.27;;;;;;;19.48;72.50;101225.88;5055541;28;20059;-90
2023/05/05 06:51:15;;;;;;;11.27;7.80;;;;;;;19.61;72.64;101233.22;5072457;28;20063;-90
2023/05/05 06:53:42;;;;;;;12.18;8.68;;;;;;;19.72;72.67;101227.34;5055883;28;20044;-90
2023/05/05 06:56:10;;;;;;;11.98;8.27;;;;;;;19.69;72.46;101225.22;5055636;28;20044;-90
2023/05/05 06:58:38;;;;;;;10.73;7.40;;;;;;;19.81;71.78;101230.97;5055784;28;20053;-90
2023/05/05 07:01:07;;;;;;;13.68;9.50;;;;;;;19.91;71.52;101240.09;5072236;28;20045;-90
2023/05/05 07:03:35;;;;;;;12.30;8.82;;;;;;;19.99;71.83;101230.97;5056040;28;20055;-90
2023/05/05 07:06:03;;;;;;;13.60;8.13;;;;;;;20.01;71.67;101235.03;5055205;28;20056;-91
2023/05/05 07:08:31;;;;;;;14.85;8.95;;;;;;;19.99;70.96;101234.56;5088963;28;20045;-91
2023/05/05 07:11:00;;;;;;;15.27;9.23;;;;;;;20.05;70.62;101232.44;5071895;28;20049;-90
2023/05/05 07:13:27;;;;;;;15.85;8.30;;;;;;;20.25;68.95;101235.66;5054904;28;20051;-90
2023/05/05 07:15:55;;;;;;;12.30;8.05;;;;;;;20.39;67.97;101229.91;5055070;28;20040;-90
2023/05/05 07:18:23;;;;;;;13.35;8.80;;;;;;;20.38;67.99;101231.88;5054877;28;20053;-90
2023/05/05 07:20:51;;;;;;;15.43;9.15;;;;;;;20.41;67.79;101235.94;5055638;28;20059;-91
2023/05/05 07:23:19;;;;;;;17.05;9.10;;;;;;;20.48;66.42;101229.88;5055032;28;20052;-91
2023/05/05 07:25:47;;;;;;;15.30;9.38;;;;;;;20.57;66.45;101235.41;5088610;28;20079;-91
2023/05/05 07:28:15;;;;;;;12.80;8.73;;;;;;;20.54;67.17;101231.34;5073152;28;20037;-89
2023/05/05 07:30:43;;;;;;;14.77;8.05;;;;;;;20.70;65.06;101236.31;5055105;28;20059;-90
2023/05/05 07:33:11;;;;;;;11.27;7.90;;;;;;;20.75;65.53;101228.63;5054780;28;20048;-90
2023/05/05 07:35:39;;;;;;;11.90;8.15;;;;;;;20.76;64.66;101235.81;5071695;28;20033;-90
2023/05/05 07:38:07;;;;;;;13.70;8.45;;;;;;;20.91;64.66;101237.25;5071750;28;20044;-89
2023/05/05 07:40:37;;;;;;;10.50;7.95;;;;;;;20.75;66.01;101228.63;5054501;28;20410;-90
2023/05/05 07:43:05;;;;;;;10.75;7.70;;;;;;;20.91;63.84;101228.91;5070988;28;20044;-90
2023/05/05 07:45:33;;;;;;;14.65;8.00;;;;;;;21.02;63.97;101229.34;5054762;28;20385;-89
2023/05/05 07:48:01;;;;;;;11.40;7.70;;;;;;;21.08;64.03;101236.31;5071297;28;20048;-89
2023/05/05 07:50:29;;;;;;;11.90;7.28;;;;;;;21.08;63.61;101224.41;5071093;28;20052;-90
2023/05/05 07:52:57;;;;;;;10.80;7.43;;;;;;;21.13;63.02;101226.16;5071090;28;20045;-89
2023/05/05 07:55:40;;;;;;;10.93;7.32;;;;;;;21.24;63.81;101229.38;5054391;28;20052;-89
2023/05/05 07:58:09;;;;;;;11.48;7.80;;;;;;;21.34;63.34;101223.41;5053963;28;20052;-89
2023/05/05 08:00:38;;;;;;;11.13;8.18;;;;;;;21.25;62.51;101225.44;5087817;28;20399;-90
2023/05/05 08:03:06;;;;;;;13.05;7.82;;;;;;;21.28;63.34;101221.97;5087769;28;20052;-89
2023/05/05 08:05:38;;;;;;;11.35;8.07;;;;;;;21.43;62.72;101221.38;5072132;28;20491;-89
2023/05/05 08:08:06;;;;;;;13.73;7.90;;;;;;;21.48;65.02;101214.78;5087627;28;20578;-89
2023/05/05 08:10:34;;;;;;;10.32;8.00;;;;;;;21.47;63.36;101225.09;5053926;28;20490;-89
2023/05/05 08:13:02;;;;;;;15.80;9.40;;;;;;;21.55;63.61;101220.63;5054107;28;20040;-89
2023/05/05 08:15:30;;;;;;;13.38;8.38;;;;;;;;;;5071020;28;20383;-87
2023/05/05 08:17:58;;;;;;;15.27;8.68;;;;;;;21.56;62.39;101218.66;5070392;28;20048;-89
2023/05/05 08:20:28;;;;;;;14.43;8.63;;;;;;;21.57;62.29;101215.56;5070926;28;20513;-89
2023/05/05 08:22:56;;;;;;;14.80;8.85;;;;;;;21.73;61.20;101212.16;5087723;28;20041;-89
2023/05/05 08:25:25;;;;;;;10.13;7.65;;;;;;;21.92;61.62;101220.03;5053934;28;20507;-89
2023/05/05 08:27:53;;;;;;;13.32;8.85;;;;;;;21.88;62.21;101217.13;5070363;28;20419;-89
2023/05/05 08:30:27;;;;;;;11.23;8.30;;;;;;;21.96;60.00;101218.19;5054667;28;20403;-89
2023/05/05 08:32:55;;;;;;;12.10;8.05;;;;;;;21.83;62.14;101219.28;5053803;28;20052;-89
2023/05/05 08:35:23;;;;;;;11.43;7.47;;;;;;;21.96;60.33;101218.19;5070653;28;20047;-89
2023/05/05 08:37:51;;;;;;;11.25;7.90;;;;;;;21.85;61.58;101216.97;5070591;28;20067;-89
2023/05/05 08:40:28;;;;;;;10.73;7.78;;;;;;;21.97;60.62;101214.25;5053722;28;20096;-88
2023/05/05 08:42:56;;;;;;;11.90;7.63;;;;;;;22.07;59.99;101213.00;5053864;28;20151;-88
2023/05/05 08:45:26;;;;;;;10.25;6.60;;;;;;;22.11;59.64;101224.25;5071377;28;20052;-89
2023/05/05 08:48:03;;;;;;;10.57;6.45;;;;;;;22.17;59.37;101224.84;5053729;28;20051;-89
2023/05/05 08:50:32;;;;;;;10.88;6.78;;;;;;;22.18;57.64;101215.34;5053403;28;20052;-88
2023/05/05 08:53:09;;;;;;;8.85;6.03;;;;;;;22.14;56.91;101218.00;5053866;28;20052;-88
2023/05/05 08:55:51;;;;;;;9.55;6.35;;;;;;;22.18;59.20;101232.88;5056157;28;20048;-87
2023/05/05 08:58:21;;;;;;;10.88;6.40;;;;;;;22.24;56.64;101220.34;5075748;28;20049;-87
2023/05/05 09:00:49;;;;;;;10.10;6.07;;;;;;;22.42;55.95;101220.16;5074243;28;20045;-88
2023/05/05 09:03:17;;;;;;;7.20;5.57;;;;;;;22.40;54.56;101225.25;5074504;28;20052;-88
2023/05/05 09:05:46;;;;;;;8.68;6.65;;;;;;;22.27;53.36;101218.84;5091205;28;20044;-89
2023/05/05 09:08:14;;;;;;;9.18;6.25;;;;;;;22.51;53.78;101226.44;5058038;28;20048;-88
2023/05/05 09:10:43;;;;;;;10.85;6.60;;;;;;;22.29;55.45;101216.53;5074258;28;20049;-87
2023/05/05 09:13:11;;;;;;;7.72;5.82;;;;;;;22.45;54.88;101227.84;5074526;28;20053;-88
2023/05/05 09:15:40;;;;;;;6.32;5.20;;;;;;;22.49;52.41;101225.97;5091487;28;20045;-89
2023/05/05 09:18:10;;;;;;;7.35;4.78;;;;;;;22.65;51.92;101219.75;5057589;28;20071;-89
2023/05/05 09:20:40;;;;;;;5.78;4.57;;;;;;;22.75;50.73;101227.66;5057260;28;20423;-88
2023/05/05 09:23:11;;;;;;;8.15;4.88;;;;;;;22.85;50.51;101226.38;5073753;28;20048;-88
2023/05/05 09:25:43;;;;;;;9.23;4.05;;;;;;;22.88;50.18;101228.47;5073698;28;20040;-88
2023/05/05 09:28:16;;;;;;;7.00;4.15;;;;;;;22.91;48.49;101221.38;5057357;28;20048;-88
2023/05/05 09:30:45;;;;;;;4.88;4.13;;;;;;;22.80;48.64;101215.44;5090582;28;20055;-88
2023/05/05 09:33:27;;;;;;;6.47;4.65;;;;;;;23.05;50.48;101213.47;5073405;28;20490;-88
2023/05/05 09:35:55;;;;;;;6.90;4.55;;;;;;;23.17;50.37;101211.81;5057128;28;20052;-89
2023/05/05 09:38:24;;;;;;;7.18;4.95;;;;;;;23.21;49.08;101212.72;5090622;28;20055;-89
2023/05/05 09:40:53;;;;;;;8.07;5.30;;;;;;;22.90;49.03;101200.22;5056825;28;20059;-90
2023/05/05 09:43:22;;;;;;;4.93;4.25;;;;;;;23.22;48.88;101203.22;5073526;28;20049;-89
2023/05/05 09:45:50;;;;;;;11.10;4.97;;;;;;;23.43;48.55;101205.88;5073687;28;20037;-88
2023/05/05 09:48:25;;;;;;;32.38;5.80;;;;;;;23.47;49.34;101203.19;5073704;28;20494;-88
2023/05/05 09:50:55;;;;;;;8.45;4.93;;;;;;;23.43;50.91;101191.06;5074574;28;20060;-89
2023/05/05 09:53:24;;;;;;;12.45;4.50;;;;;;;23.38;48.41;101189.34;5074458;28;20398;-88
2023/05/05 09:55:56;;;;;;;5.43;4.50;;;;;;;23.41;45.56;101194.22;5073238;28;20399;-89
2023/05/05 09:58:27;;;;;;;8.07;4.30;;;;;;;23.38;48.52;101191.31;5090173;28;20399;-88
2023/05/05 10:00:57;;;;;;;5.65;4.43;;;;;;;23.52;47.67;101197.34;5074415;28;20388;-87
2023/05/05 10:03:25;;;;;;;6.30;4.85;;;;;;;23.60;47.43;101190.78;5073239;28;20380;-88
2023/05/05 10:05:55;;;;;;;5.57;4.40;;;;;;;23.58;47.37;101187.53;5073026;28;20048;-88
2023/05/05 10:08:29;;;;;;;5.57;4.72;;;;;;;23.69;48.76;101195.41;5074226;28;20053;-90
2023/05/05 10:11:05;;;;;;;8.43;5.88;;;;;;;23.84;46.61;101196.63;5056425;28;20494;-90
2023/05/05 10:13:36;;;;;;;8.02;4.63;;;;;;;23.82;47.88;101196.16;5072793;28;20064;-88
2023/05/05 10:16:08;;;;;;;8.70;4.93;;;;;;;23.73;47.64;101182.34;5074328;28;20468;-90
2023/05/05 10:18:43;;;;;;;7.50;4.97;;;;;;;23.73;47.41;101187.94;5073137;28;20036;-93
2023/05/05 10:21:12;;;;;;;8.55;4.93;;;;;;;23.60;49.02;101185.19;5058309;28;20051;-93
2023/05/05 10:24:00;;;;;;;8.93;5.13;;;;;;;23.67;47.93;101178.19;5057540;28;20041;-93
2023/05/05 10:26:36;;;;;;;9.05;4.63;;;;;;;23.81;47.88;101174.97;5057603;28;20067;-93
2023/05/05 10:29:10;;;;;;;6.68;4.78;;;;;;;24.03;46.60;101173.59;5057455;28;20052;-93
2023/05/05 10:31:47;;;;;;;;;;;;;;;24.18;46.58;101174.00;5058166;28;20056;-93
2023/05/05 10:34:48;;;;;;;6.07;4.28;;;;;;;24.15;46.93;101175.53;5074624;28;19920;-94
2023/05/05 10:37:18;;;;;;;5.57;4.55;;;;;;;24.28;47.11;101167.84;5057463;28;20056;-93
2023/05/05 10:39:48;;;;;;;8.50;5.18;;;;;;;24.42;46.88;101165.44;5047234;28;20510;-93
2023/05/05 10:42:19;;;;;;;5.15;4.65;;;;;;;24.36;46.18;101155.69;5074660;28;20504;-93
2023/05/05 10:44:48;;;;;;;6.43;4.63;;;;;;;24.39;46.21;101163.34;5075827;28;20048;-93
2023/05/05 10:47:18;;;;;;;4.97;4.43;;;;;;;24.45;46.28;101155.50;5059249;28;20048;-91
2023/05/05 10:50:20;;;;;;;5.57;4.80;;;;;;;24.40;45.34;101152.97;5074815;28;20052;-90
2023/05/05 10:53:07;;;;;;;6.60;5.03;;;;;;;24.48;47.30;101142.78;5092740;28;20048;-90
2023/05/05 10:55:37;;;;;;;8.15;4.40;;;;;;;24.70;46.09;101149.69;5059901;28;20048;-91
2023/05/05 10:58:05;;;;;;;6.20;4.25;;;;;;;24.70;44.58;101130.91;5093240;28;20047;-90
2023/05/05 11:00:37;;;;;;;6.82;4.95;;;;;;;25.01;44.11;101147.19;5056732;28;20048;-91
2023/05/05 11:03:17;;;;;;;7.60;4.72;;;;;;;25.18;43.95;101146.00;5072579;28;20044;-91
2023/05/05 11:06:06;;;;;;;5.03;4.50;;;;;;;25.38;44.25;101140.38;5074400;28;20040;-92
2023/05/05 11:08:37;;;;;;;8.23;4.70;;;;;;;25.04;42.97;101138.09;5056767;28;20044;-92
2023/05/05 11:11:05;;;;;;;5.35;4.47;;;;;;;24.72;43.78;101126.97;5066310;28;20048;-91
2023/05/05 11:13:33;;;;;;;6.93;4.70;;;;;;;24.86;43.65;101127.31;5058383;28;20052;-91
2023/05/05 11:16:01;;;;;;;6.15;4.53;;;;;;;25.18;43.61;101120.78;5084705;28;20055;-91
2023/05/05 11:18:39;;;;;;;5.70;4.63;;;;;;;25.26;45.00;101118.94;5053653;28;20052;-91
2023/05/05 11:21:15;;;;;;;6.25;4.65;;;;;;;25.06;43.90;101114.16;5054878;28;20071;-91
2023/05/05 11:23:48;;;;;;;6.40;4.65;;;;;;;25.31;46.52;101105.44;5074882;28;20047;-91
2023/05/05 11:26:52;;;;;;;7.85;4.90;;;;;;;25.41;43.27;101108.84;5075185;28;20437;-92
2023/05/05 11:29:20;;;;;;;5.30;4.18;;;;;;;25.28;43.54;101097.81;5066624;28;20049;-91
2023/05/05 11:32:11;;;;;;;5.53;4.57;;;;;;;25.42;42.94;101097.25;5054035;28;20426;-91
2023/05/05 11:34:49;;;;;;;5.38;4.18;;;;;;;25.72;43.36;101096.63;5079409;28;20044;-89
2023/05/05 11:37:23;;;;;;;5.60;4.85;;;;;;;25.53;42.17;101091.06;5089035;28;20052;-92